< Typhoon 201803 2018 Season Typhoon 201805 >
Typhoon 201804 (EWINIAR)
General InformationTrack Information on Google MapsDetailed Wind InformationForecast History on Google MapsAccess Analytics MapList of All Images || NewsDisaster Info.WeblogTrackbackTyphoon FrontTwiphoonTyphoon Now!Typhoon ImaginationJMA Disaster Info. XMLResourceGoogle EarthGE AnimationAtom FeedGeoJSON
Detalied Best Track (Time Zone = UTC)
Year Month Day Hour Lat. Long. Pressure (hPa) Wind (kt) Class Image Chart
2018 6 2 18 14.2 112.0 1004 0 2 Image Chart
2018 6 3 00 14.5 111.6 1002 0 2 Image Chart
2018 6 3 06 14.9 111.3 1002 0 2 Image Chart
2018 6 3 12 15.2 111.0 1002 0 2 Image Chart
2018 6 3 18 15.4 110.9 1002 0 2 Image Chart
2018 6 4 00 15.6 110.7 1002 0 2 Image Chart
2018 6 4 06 15.8 110.6 1002 0 2 Image Chart
2018 6 4 12 16.2 110.7 1002 0 2 Image Chart
2018 6 4 18 16.8 111.1 1000 0 2 Image Chart
2018 6 5 00 17.5 111.4 1000 35 3 Image Chart
2018 6 5 06 18.5 111.5 1000 35 3 Image Chart
2018 6 5 12 19.7 111.4 1000 35 3 Image Chart
2018 6 5 18 20.5 111.0 1000 35 3 Image Chart
2018 6 6 00 20.7 110.7 1000 35 3 Image Chart
2018 6 6 06 20.1 110.4 998 35 3 Image Chart
2018 6 6 12 20.2 111.0 998 35 3 Image Chart
2018 6 6 18 20.4 111.3 998 35 3 Image Chart
2018 6 7 00 20.7 111.3 998 35 3 Image Chart
2018 6 7 06 21.0 111.4 998 40 3 Image Chart
2018 6 7 12 21.4 111.7 998 40 3 Image Chart
2018 6 7 18 21.9 111.9 998 40 3 Image Chart
2018 6 8 00 22.5 112.1 998 40 3 Image Chart
2018 6 8 06 23.0 112.3 998 35 3 Image Chart
2018 6 8 12 23.3 112.6 998 35 3 Image Chart
2018 6 8 18 23.1 113.3 998 0 2 Image Chart
2018 6 9 00 22.9 113.9 998 0 2 Image Chart
2018 6 9 06 23.0 114.4 998 0 2 Image Chart
2018 6 9 12 23.0 114.6 998 0 2 Image Chart
2018 6 9 18 22.8 115.3 998 0 2 Image Chart
2018 6 10 00 22.7 116.4 1000 0 2 Image Chart
2018 6 10 06 23.1 118.6 998 0 2 Image Chart
2018 6 10 12 23.4 121.8 1000 0 2 Image Chart
2018 6 10 18 23.9 122.8 998 0 2 Image Chart
2018 6 11 00 24.6 123.7 998 0 2 Image Chart
2018 6 11 06 24.9 125.3 998 0 2 Image Chart
Japan Meteorological Agency Best Track Data | Correction Date : 2018-07-18
< Typhoon 201803 2018 Season Typhoon 201805 >

Help